sensor_id;sensor_type;location;lat;lon;timestamp;P1;durP1;ratioP1;P2;durP2;ratioP2
19127;SDS011;9696;53.686;10.094;2022-08-19T00:01:57;20.60;;;10.52;;
19127;SDS011;9696;53.686;10.094;2022-08-19T00:04:27;16.67;;;9.55;;
19127;SDS011;9696;53.686;10.094;2022-08-19T00:07:01;16.42;;;10.10;;
19127;SDS011;9696;53.686;10.094;2022-08-19T00:09:31;22.35;;;10.48;;
19127;SDS011;9696;53.686;10.094;2022-08-19T00:12:01;17.23;;;10.00;;
19127;SDS011;9696;53.686;10.094;2022-08-19T00:14:30;21.08;;;10.10;;
19127;SDS011;9696;53.686;10.094;2022-08-19T00:17:00;14.90;;;9.13;;
19127;SDS011;9696;53.686;10.094;2022-08-19T00:19:30;17.73;;;9.38;;
19127;SDS011;9696;53.686;10.094;2022-08-19T00:22:00;20.13;;;9.35;;
19127;SDS011;9696;53.686;10.094;2022-08-19T00:24:30;18.52;;;10.45;;
19127;SDS011;9696;53.686;10.094;2022-08-19T00:27:01;19.13;;;9.73;;
19127;SDS011;9696;53.686;10.094;2022-08-19T00:29:50;16.80;;;9.75;;
19127;SDS011;9696;53.686;10.094;2022-08-19T00:32:19;20.25;;;10.35;;
19127;SDS011;9696;53.686;10.094;2022-08-19T00:34:49;33.75;;;11.48;;
19127;SDS011;9696;53.686;10.094;2022-08-19T00:37:22;21.95;;;10.20;;
19127;SDS011;9696;53.686;10.094;2022-08-19T00:39:53;17.15;;;9.65;;
19127;SDS011;9696;53.686;10.094;2022-08-19T00:42:22;13.75;;;9.48;;
19127;SDS011;9696;53.686;10.094;2022-08-19T00:44:55;21.40;;;10.65;;
19127;SDS011;9696;53.686;10.094;2022-08-19T00:47:24;19.60;;;10.90;;
19127;SDS011;9696;53.686;10.094;2022-08-19T00:49:54;20.88;;;11.27;;
19127;SDS011;9696;53.686;10.094;2022-08-19T00:52:28;19.38;;;11.32;;
19127;SDS011;9696;53.686;10.094;2022-08-19T00:55:00;22.38;;;11.23;;
19127;SDS011;9696;53.686;10.094;2022-08-19T00:57:32;25.13;;;11.73;;
19127;SDS011;9696;53.686;10.094;2022-08-19T01:00:07;23.00;;;12.18;;
19127;SDS011;9696;53.686;10.094;2022-08-19T01:02:38;24.42;;;12.05;;
19127;SDS011;9696;53.686;10.094;2022-08-19T01:05:09;25.90;;;12.60;;
19127;SDS011;9696;53.686;10.094;2022-08-19T01:07:43;33.53;;;13.93;;
19127;SDS011;9696;53.686;10.094;2022-08-19T01:10:14;28.50;;;14.20;;
19127;SDS011;9696;53.686;10.094;2022-08-19T01:12:46;28.90;;;13.73;;
19127;SDS011;9696;53.686;10.094;2022-08-19T01:15:17;29.48;;;13.68;;
19127;SDS011;9696;53.686;10.094;2022-08-19T01:17:48;25.00;;;12.15;;
19127;SDS011;9696;53.686;10.094;2022-08-19T01:20:20;25.25;;;12.23;;
19127;SDS011;9696;53.686;10.094;2022-08-19T01:22:52;27.05;;;14.45;;
19127;SDS011;9696;53.686;10.094;2022-08-19T01:25:25;25.63;;;13.45;;
19127;SDS011;9696;53.686;10.094;2022-08-19T01:27:57;28.08;;;13.68;;
19127;SDS011;9696;53.686;10.094;2022-08-19T01:30:37;30.00;;;12.13;;
19127;SDS011;9696;53.686;10.094;2022-08-19T01:33:16;25.48;;;12.85;;
19127;SDS011;9696;53.686;10.094;2022-08-19T01:35:46;24.20;;;13.13;;
19127;SDS011;9696;53.686;10.094;2022-08-19T01:38:20;26.02;;;13.80;;
19127;SDS011;9696;53.686;10.094;2022-08-19T01:40:52;22.40;;;11.90;;
19127;SDS011;9696;53.686;10.094;2022-08-19T01:43:21;23.05;;;12.93;;
19127;SDS011;9696;53.686;10.094;2022-08-19T01:45:51;25.02;;;13.88;;
19127;SDS011;9696;53.686;10.094;2022-08-19T01:48:20;31.90;;;14.27;;
19127;SDS011;9696;53.686;10.094;2022-08-19T01:50:50;33.15;;;15.27;;
19127;SDS011;9696;53.686;10.094;2022-08-19T01:53:20;25.65;;;14.07;;
19127;SDS011;9696;53.686;10.094;2022-08-19T01:55:56;30.25;;;13.25;;
19127;SDS011;9696;53.686;10.094;2022-08-19T01:58:26;28.52;;;14.32;;
19127;SDS011;9696;53.686;10.094;2022-08-19T02:00:59;29.52;;;12.20;;
19127;SDS011;9696;53.686;10.094;2022-08-19T02:03:28;30.33;;;13.63;;
19127;SDS011;9696;53.686;10.094;2022-08-19T02:05:58;30.35;;;14.25;;
19127;SDS011;9696;53.686;10.094;2022-08-19T02:08:31;26.48;;;13.52;;
19127;SDS011;9696;53.686;10.094;2022-08-19T02:11:02;24.35;;;12.93;;
19127;SDS011;9696;53.686;10.094;2022-08-19T02:13:33;24.95;;;12.68;;
19127;SDS011;9696;53.686;10.094;2022-08-19T02:16:03;30.38;;;13.30;;
19127;SDS011;9696;53.686;10.094;2022-08-19T02:18:32;24.67;;;12.32;;
19127;SDS011;9696;53.686;10.094;2022-08-19T02:21:02;24.15;;;12.07;;
19127;SDS011;9696;53.686;10.094;2022-08-19T02:23:33;24.80;;;12.18;;
19127;SDS011;9696;53.686;10.094;2022-08-19T02:26:02;22.90;;;11.50;;
19127;SDS011;9696;53.686;10.094;2022-08-19T02:28:31;28.67;;;11.82;;
19127;SDS011;9696;53.686;10.094;2022-08-19T02:31:00;33.40;;;12.88;;
19127;SDS011;9696;53.686;10.094;2022-08-19T02:33:29;23.63;;;11.07;;
19127;SDS011;9696;53.686;10.094;2022-08-19T02:35:58;24.38;;;11.15;;
19127;SDS011;9696;53.686;10.094;2022-08-19T02:38:30;22.15;;;11.10;;
19127;SDS011;9696;53.686;10.094;2022-08-19T02:41:05;21.25;;;11.50;;
19127;SDS011;9696;53.686;10.094;2022-08-19T02:43:36;25.80;;;12.20;;
19127;SDS011;9696;53.686;10.094;2022-08-19T02:46:27;26.02;;;12.15;;
19127;SDS011;9696;53.686;10.094;2022-08-19T02:49:00;27.50;;;12.18;;
19127;SDS011;9696;53.686;10.094;2022-08-19T02:51:32;31.70;;;12.88;;
19127;SDS011;9696;53.686;10.094;2022-08-19T02:54:04;36.65;;;13.02;;
19127;SDS011;9696;53.686;10.094;2022-08-19T02:56:35;33.03;;;13.38;;
19127;SDS011;9696;53.686;10.094;2022-08-19T02:59:05;31.65;;;12.77;;
19127;SDS011;9696;53.686;10.094;2022-08-19T03:01:38;35.08;;;13.60;;
19127;SDS011;9696;53.686;10.094;2022-08-19T03:04:10;42.33;;;15.00;;
19127;SDS011;9696;53.686;10.094;2022-08-19T03:06:42;32.67;;;12.68;;
19127;SDS011;9696;53.686;10.094;2022-08-19T03:09:13;30.45;;;13.00;;
19127;SDS011;9696;53.686;10.094;2022-08-19T03:11:44;45.67;;;13.68;;
19127;SDS011;9696;53.686;10.094;2022-08-19T03:14:18;36.28;;;13.77;;
19127;SDS011;9696;53.686;10.094;2022-08-19T03:16:48;38.70;;;12.88;;
19127;SDS011;9696;53.686;10.094;2022-08-19T03:19:19;29.33;;;11.75;;
19127;SDS011;9696;53.686;10.094;2022-08-19T03:21:49;35.30;;;12.73;;
19127;SDS011;9696;53.686;10.094;2022-08-19T03:24:19;32.92;;;12.23;;
19127;SDS011;9696;53.686;10.094;2022-08-19T03:26:51;26.67;;;11.82;;
19127;SDS011;9696;53.686;10.094;2022-08-19T03:29:24;22.85;;;11.18;;
19127;SDS011;9696;53.686;10.094;2022-08-19T03:31:57;29.50;;;11.48;;
19127;SDS011;9696;53.686;10.094;2022-08-19T03:34:32;25.13;;;11.25;;
19127;SDS011;9696;53.686;10.094;2022-08-19T03:37:03;25.15;;;11.00;;
19127;SDS011;9696;53.686;10.094;2022-08-19T03:39:34;27.48;;;11.05;;
19127;SDS011;9696;53.686;10.094;2022-08-19T03:42:06;18.38;;;10.00;;
19127;SDS011;9696;53.686;10.094;2022-08-19T03:44:55;21.35;;;10.43;;
19127;SDS011;9696;53.686;10.094;2022-08-19T03:47:25;19.80;;;9.95;;
19127;SDS011;9696;53.686;10.094;2022-08-19T03:49:54;28.88;;;10.82;;
19127;SDS011;9696;53.686;10.094;2022-08-19T03:52:23;20.58;;;11.13;;
19127;SDS011;9696;53.686;10.094;2022-08-19T03:54:52;23.65;;;10.70;;
19127;SDS011;9696;53.686;10.094;2022-08-19T03:57:23;17.10;;;10.48;;
19127;SDS011;9696;53.686;10.094;2022-08-19T03:59:58;24.45;;;10.48;;
19127;SDS011;9696;53.686;10.094;2022-08-19T04:02:40;30.30;;;12.35;;
19127;SDS011;9696;53.686;10.094;2022-08-19T04:05:27;26.17;;;11.02;;
19127;SDS011;9696;53.686;10.094;2022-08-19T04:07:56;22.13;;;11.13;;
19127;SDS011;9696;53.686;10.094;2022-08-19T04:10:26;24.98;;;12.20;;
19127;SDS011;9696;53.686;10.094;2022-08-19T04:12:57;24.00;;;11.52;;
19127;SDS011;9696;53.686;10.094;2022-08-19T04:15:26;25.92;;;11.20;;
19127;SDS011;9696;53.686;10.094;2022-08-19T04:18:00;32.38;;;12.77;;
19127;SDS011;9696;53.686;10.094;2022-08-19T04:20:29;29.83;;;11.75;;
19127;SDS011;9696;53.686;10.094;2022-08-19T04:22:58;23.15;;;12.00;;
19127;SDS011;9696;53.686;10.094;2022-08-19T04:25:27;24.77;;;12.27;;
19127;SDS011;9696;53.686;10.094;2022-08-19T04:27:58;24.60;;;11.43;;
19127;SDS011;9696;53.686;10.094;2022-08-19T04:30:27;30.70;;;12.90;;
19127;SDS011;9696;53.686;10.094;2022-08-19T04:32:56;27.98;;;12.57;;
19127;SDS011;9696;53.686;10.094;2022-08-19T04:35:25;32.15;;;12.63;;
19127;SDS011;9696;53.686;10.094;2022-08-19T04:37:54;21.65;;;12.68;;
19127;SDS011;9696;53.686;10.094;2022-08-19T04:40:23;32.78;;;12.07;;
19127;SDS011;9696;53.686;10.094;2022-08-19T04:43:11;28.15;;;12.30;;
19127;SDS011;9696;53.686;10.094;2022-08-19T04:45:42;27.05;;;12.07;;
19127;SDS011;9696;53.686;10.094;2022-08-19T04:48:12;23.88;;;12.10;;
19127;SDS011;9696;53.686;10.094;2022-08-19T04:50:53;34.85;;;12.63;;
19127;SDS011;9696;53.686;10.094;2022-08-19T04:53:24;30.00;;;12.38;;
19127;SDS011;9696;53.686;10.094;2022-08-19T04:56:04;28.83;;;11.88;;
19127;SDS011;9696;53.686;10.094;2022-08-19T04:58:37;24.27;;;11.43;;
19127;SDS011;9696;53.686;10.094;2022-08-19T05:01:09;26.50;;;11.18;;
19127;SDS011;9696;53.686;10.094;2022-08-19T05:03:39;26.00;;;11.80;;
19127;SDS011;9696;53.686;10.094;2022-08-19T05:06:10;29.75;;;11.88;;
19127;SDS011;9696;53.686;10.094;2022-08-19T05:08:41;23.25;;;11.65;;
19127;SDS011;9696;53.686;10.094;2022-08-19T05:11:13;18.75;;;10.73;;
19127;SDS011;9696;53.686;10.094;2022-08-19T05:13:46;25.25;;;11.05;;
19127;SDS011;9696;53.686;10.094;2022-08-19T05:16:16;23.15;;;11.43;;
19127;SDS011;9696;53.686;10.094;2022-08-19T05:18:47;20.15;;;11.65;;
19127;SDS011;9696;53.686;10.094;2022-08-19T05:21:34;27.80;;;12.88;;
19127;SDS011;9696;53.686;10.094;2022-08-19T05:24:24;23.42;;;11.50;;
19127;SDS011;9696;53.686;10.094;2022-08-19T05:26:56;28.75;;;11.18;;
19127;SDS011;9696;53.686;10.094;2022-08-19T05:29:27;25.48;;;12.10;;
19127;SDS011;9696;53.686;10.094;2022-08-19T05:32:02;22.25;;;11.10;;
19127;SDS011;9696;53.686;10.094;2022-08-19T05:34:35;22.20;;;10.60;;
19127;SDS011;9696;53.686;10.094;2022-08-19T05:37:06;25.73;;;11.02;;
19127;SDS011;9696;53.686;10.094;2022-08-19T05:39:36;25.88;;;12.45;;
19127;SDS011;9696;53.686;10.094;2022-08-19T05:42:08;21.90;;;11.63;;
19127;SDS011;9696;53.686;10.094;2022-08-19T05:44:42;30.13;;;11.68;;
19127;SDS011;9696;53.686;10.094;2022-08-19T05:47:13;26.50;;;12.65;;
19127;SDS011;9696;53.686;10.094;2022-08-19T05:49:43;29.90;;;12.20;;
19127;SDS011;9696;53.686;10.094;2022-08-19T05:52:13;26.65;;;11.50;;
19127;SDS011;9696;53.686;10.094;2022-08-19T05:54:45;27.45;;;12.32;;
19127;SDS011;9696;53.686;10.094;2022-08-19T05:57:18;34.78;;;12.38;;
19127;SDS011;9696;53.686;10.094;2022-08-19T05:59:49;29.23;;;11.52;;
19127;SDS011;9696;53.686;10.094;2022-08-19T06:02:24;34.70;;;12.38;;
19127;SDS011;9696;53.686;10.094;2022-08-19T06:04:54;26.23;;;11.75;;
19127;SDS011;9696;53.686;10.094;2022-08-19T06:07:23;28.17;;;12.63;;
19127;SDS011;9696;53.686;10.094;2022-08-19T06:09:53;32.13;;;12.52;;
19127;SDS011;9696;53.686;10.094;2022-08-19T06:12:27;30.77;;;12.07;;
19127;SDS011;9696;53.686;10.094;2022-08-19T06:15:00;29.23;;;12.70;;
19127;SDS011;9696;53.686;10.094;2022-08-19T06:17:31;31.25;;;13.30;;
19127;SDS011;9696;53.686;10.094;2022-08-19T06:20:02;33.15;;;12.57;;
19127;SDS011;9696;53.686;10.094;2022-08-19T06:22:36;27.70;;;11.70;;
19127;SDS011;9696;53.686;10.094;2022-08-19T06:25:07;35.20;;;14.20;;
19127;SDS011;9696;53.686;10.094;2022-08-19T06:27:36;35.60;;;12.98;;
19127;SDS011;9696;53.686;10.094;2022-08-19T06:30:28;28.95;;;13.27;;
19127;SDS011;9696;53.686;10.094;2022-08-19T06:32:58;32.53;;;12.35;;
19127;SDS011;9696;53.686;10.094;2022-08-19T06:35:27;30.88;;;13.20;;
19127;SDS011;9696;53.686;10.094;2022-08-19T06:37:56;30.33;;;13.55;;
19127;SDS011;9696;53.686;10.094;2022-08-19T06:40:26;32.80;;;13.02;;
19127;SDS011;9696;53.686;10.094;2022-08-19T06:42:55;35.35;;;12.43;;
19127;SDS011;9696;53.686;10.094;2022-08-19T06:45:30;30.65;;;12.90;;
19127;SDS011;9696;53.686;10.094;2022-08-19T06:48:02;31.98;;;11.70;;
19127;SDS011;9696;53.686;10.094;2022-08-19T06:50:31;23.80;;;11.13;;
19127;SDS011;9696;53.686;10.094;2022-08-19T06:53:02;34.83;;;11.85;;
19127;SDS011;9696;53.686;10.094;2022-08-19T06:55:32;24.48;;;11.85;;
19127;SDS011;9696;53.686;10.094;2022-08-19T06:58:02;33.55;;;11.45;;
19127;SDS011;9696;53.686;10.094;2022-08-19T07:00:33;27.00;;;11.40;;
19127;SDS011;9696;53.686;10.094;2022-08-19T07:03:03;22.77;;;11.18;;
19127;SDS011;9696;53.686;10.094;2022-08-19T07:05:39;28.02;;;12.35;;
19127;SDS011;9696;53.686;10.094;2022-08-19T07:08:12;21.73;;;11.02;;
19127;SDS011;9696;53.686;10.094;2022-08-19T07:10:42;27.40;;;11.32;;
19127;SDS011;9696;53.686;10.094;2022-08-19T07:13:12;29.73;;;11.40;;
19127;SDS011;9696;53.686;10.094;2022-08-19T07:15:43;28.63;;;12.85;;
19127;SDS011;9696;53.686;10.094;2022-08-19T07:18:13;25.55;;;10.65;;
19127;SDS011;9696;53.686;10.094;2022-08-19T07:20:42;21.23;;;11.25;;
19127;SDS011;9696;53.686;10.094;2022-08-19T07:23:12;27.63;;;11.18;;
19127;SDS011;9696;53.686;10.094;2022-08-19T07:25:42;30.25;;;12.30;;
19127;SDS011;9696;53.686;10.094;2022-08-19T07:28:19;25.27;;;10.93;;
19127;SDS011;9696;53.686;10.094;2022-08-19T07:30:52;26.13;;;10.52;;
19127;SDS011;9696;53.686;10.094;2022-08-19T07:33:21;29.35;;;11.32;;
19127;SDS011;9696;53.686;10.094;2022-08-19T07:35:53;26.08;;;11.48;;
19127;SDS011;9696;53.686;10.094;2022-08-19T07:38:22;28.10;;;11.73;;
19127;SDS011;9696;53.686;10.094;2022-08-19T07:40:52;27.85;;;11.77;;
19127;SDS011;9696;53.686;10.094;2022-08-19T07:43:22;29.00;;;12.73;;
19127;SDS011;9696;53.686;10.094;2022-08-19T07:46:02;32.22;;;11.90;;
19127;SDS011;9696;53.686;10.094;2022-08-19T07:48:31;33.70;;;12.38;;
19127;SDS011;9696;53.686;10.094;2022-08-19T07:51:02;27.77;;;11.82;;
19127;SDS011;9696;53.686;10.094;2022-08-19T07:53:35;27.35;;;11.70;;
19127;SDS011;9696;53.686;10.094;2022-08-19T07:56:06;31.70;;;12.25;;
19127;SDS011;9696;53.686;10.094;2022-08-19T07:58:37;33.17;;;10.88;;
19127;SDS011;9696;53.686;10.094;2022-08-19T08:01:12;28.00;;;11.13;;
19127;SDS011;9696;53.686;10.094;2022-08-19T08:03:43;32.53;;;11.57;;
19127;SDS011;9696;53.686;10.094;2022-08-19T08:06:39;31.90;;;11.13;;
19127;SDS011;9696;53.686;10.094;2022-08-19T08:09:28;29.75;;;11.23;;
19127;SDS011;9696;53.686;10.094;2022-08-19T08:12:01;30.30;;;11.50;;
19127;SDS011;9696;53.686;10.094;2022-08-19T08:14:53;31.35;;;11.15;;
19127;SDS011;9696;53.686;10.094;2022-08-19T08:17:26;29.80;;;12.18;;
19127;SDS011;9696;53.686;10.094;2022-08-19T08:20:18;25.83;;;11.07;;
19127;SDS011;9696;53.686;10.094;2022-08-19T08:22:47;28.23;;;11.25;;
19127;SDS011;9696;53.686;10.094;2022-08-19T08:25:34;21.67;;;10.13;;
19127;SDS011;9696;53.686;10.094;2022-08-19T08:28:04;25.58;;;10.63;;
19127;SDS011;9696;53.686;10.094;2022-08-19T08:30:43;23.02;;;11.50;;
19127;SDS011;9696;53.686;10.094;2022-08-19T08:33:18;27.17;;;10.85;;
19127;SDS011;9696;53.686;10.094;2022-08-19T08:36:01;23.40;;;11.27;;
19127;SDS011;9696;53.686;10.094;2022-08-19T08:38:30;22.40;;;11.60;;
19127;SDS011;9696;53.686;10.094;2022-08-19T08:41:09;34.67;;;12.45;;
19127;SDS011;9696;53.686;10.094;2022-08-19T08:43:47;28.85;;;11.55;;
19127;SDS011;9696;53.686;10.094;2022-08-19T08:46:21;23.92;;;11.27;;
19127;SDS011;9696;53.686;10.094;2022-08-19T08:49:01;30.08;;;12.85;;
19127;SDS011;9696;53.686;10.094;2022-08-19T08:51:37;22.25;;;11.00;;
19127;SDS011;9696;53.686;10.094;2022-08-19T08:54:14;28.08;;;12.13;;
19127;SDS011;9696;53.686;10.094;2022-08-19T08:56:51;24.48;;;11.52;;
19127;SDS011;9696;53.686;10.094;2022-08-19T08:59:23;27.35;;;11.63;;
19127;SDS011;9696;53.686;10.094;2022-08-19T09:01:58;23.23;;;11.70;;
19127;SDS011;9696;53.686;10.094;2022-08-19T09:04:29;22.33;;;11.02;;
19127;SDS011;9696;53.686;10.094;2022-08-19T09:07:04;27.83;;;11.77;;
19127;SDS011;9696;53.686;10.094;2022-08-19T09:10:04;18.92;;;10.43;;
19127;SDS011;9696;53.686;10.094;2022-08-19T09:12:47;25.92;;;11.85;;
19127;SDS011;9696;53.686;10.094;2022-08-19T09:15:25;29.55;;;11.23;;
19127;SDS011;9696;53.686;10.094;2022-08-19T09:18:03;21.67;;;10.65;;
19127;SDS011;9696;53.686;10.094;2022-08-19T09:20:34;29.52;;;11.23;;
19127;SDS011;9696;53.686;10.094;2022-08-19T09:23:08;20.02;;;10.75;;
19127;SDS011;9696;53.686;10.094;2022-08-19T09:25:38;25.58;;;11.52;;
19127;SDS011;9696;53.686;10.094;2022-08-19T09:28:07;27.17;;;11.05;;
19127;SDS011;9696;53.686;10.094;2022-08-19T09:30:51;24.27;;;11.75;;
19127;SDS011;9696;53.686;10.094;2022-08-19T09:33:21;18.98;;;10.73;;
19127;SDS011;9696;53.686;10.094;2022-08-19T09:36:00;24.73;;;10.95;;
19127;SDS011;9696;53.686;10.094;2022-08-19T09:38:34;21.25;;;11.50;;
19127;SDS011;9696;53.686;10.094;2022-08-19T09:41:10;27.52;;;11.88;;
19127;SDS011;9696;53.686;10.094;2022-08-19T09:43:42;24.67;;;10.82;;
19127;SDS011;9696;53.686;10.094;2022-08-19T09:46:14;32.10;;;12.07;;
19127;SDS011;9696;53.686;10.094;2022-08-19T09:48:44;28.35;;;11.48;;
19127;SDS011;9696;53.686;10.094;2022-08-19T09:51:17;23.65;;;11.35;;
19127;SDS011;9696;53.686;10.094;2022-08-19T09:53:49;23.67;;;11.20;;
19127;SDS011;9696;53.686;10.094;2022-08-19T09:56:21;20.27;;;10.32;;
19127;SDS011;9696;53.686;10.094;2022-08-19T09:58:51;24.42;;;11.20;;
19127;SDS011;9696;53.686;10.094;2022-08-19T10:01:20;22.27;;;9.90;;
19127;SDS011;9696;53.686;10.094;2022-08-19T10:03:52;21.30;;;10.10;;
19127;SDS011;9696;53.686;10.094;2022-08-19T10:06:25;24.67;;;10.80;;
19127;SDS011;9696;53.686;10.094;2022-08-19T10:09:13;19.27;;;9.77;;
19127;SDS011;9696;53.686;10.094;2022-08-19T10:11:59;20.48;;;9.90;;
19127;SDS011;9696;53.686;10.094;2022-08-19T10:14:29;18.73;;;9.35;;
19127;SDS011;9696;53.686;10.094;2022-08-19T10:17:00;17.98;;;9.15;;
19127;SDS011;9696;53.686;10.094;2022-08-19T10:19:48;19.33;;;8.82;;
19127;SDS011;9696;53.686;10.094;2022-08-19T10:22:23;15.38;;;8.38;;
19127;SDS011;9696;53.686;10.094;2022-08-19T10:24:52;22.00;;;9.85;;
19127;SDS011;9696;53.686;10.094;2022-08-19T10:27:22;19.60;;;9.05;;
19127;SDS011;9696;53.686;10.094;2022-08-19T10:29:52;15.15;;;8.68;;
19127;SDS011;9696;53.686;10.094;2022-08-19T10:32:24;17.80;;;9.25;;
19127;SDS011;9696;53.686;10.094;2022-08-19T10:35:00;18.38;;;8.10;;
19127;SDS011;9696;53.686;10.094;2022-08-19T10:37:34;18.83;;;8.15;;
19127;SDS011;9696;53.686;10.094;2022-08-19T10:40:23;21.17;;;8.80;;
19127;SDS011;9696;53.686;10.094;2022-08-19T10:42:53;16.20;;;8.50;;
19127;SDS011;9696;53.686;10.094;2022-08-19T10:45:23;16.63;;;8.38;;
19127;SDS011;9696;53.686;10.094;2022-08-19T10:47:54;14.05;;;8.30;;
19127;SDS011;9696;53.686;10.094;2022-08-19T10:50:24;15.93;;;8.45;;
19127;SDS011;9696;53.686;10.094;2022-08-19T10:53:12;17.40;;;7.90;;
19127;SDS011;9696;53.686;10.094;2022-08-19T10:55:44;15.90;;;8.73;;
19127;SDS011;9696;53.686;10.094;2022-08-19T10:58:30;15.80;;;7.63;;
19127;SDS011;9696;53.686;10.094;2022-08-19T11:01:00;17.27;;;8.93;;
19127;SDS011;9696;53.686;10.094;2022-08-19T11:03:29;10.85;;;7.70;;
19127;SDS011;9696;53.686;10.094;2022-08-19T11:05:58;20.05;;;9.05;;
19127;SDS011;9696;53.686;10.094;2022-08-19T11:08:30;15.32;;;8.77;;
19127;SDS011;9696;53.686;10.094;2022-08-19T11:11:00;16.42;;;8.13;;
19127;SDS011;9696;53.686;10.094;2022-08-19T11:13:30;13.38;;;8.25;;
19127;SDS011;9696;53.686;10.094;2022-08-19T11:16:05;22.20;;;7.97;;
19127;SDS011;9696;53.686;10.094;2022-08-19T11:18:36;17.55;;;8.57;;
19127;SDS011;9696;53.686;10.094;2022-08-19T11:21:07;16.83;;;8.65;;
19127;SDS011;9696;53.686;10.094;2022-08-19T11:23:40;15.23;;;8.27;;
19127;SDS011;9696;53.686;10.094;2022-08-19T11:26:10;17.83;;;8.82;;
19127;SDS011;9696;53.686;10.094;2022-08-19T11:28:39;17.45;;;8.75;;
19127;SDS011;9696;53.686;10.094;2022-08-19T11:31:09;20.10;;;8.95;;
19127;SDS011;9696;53.686;10.094;2022-08-19T11:33:39;13.45;;;8.38;;
19127;SDS011;9696;53.686;10.094;2022-08-19T11:36:14;14.45;;;8.25;;
19127;SDS011;9696;53.686;10.094;2022-08-19T11:38:45;14.40;;;8.07;;
19127;SDS011;9696;53.686;10.094;2022-08-19T11:41:16;14.43;;;7.75;;
19127;SDS011;9696;53.686;10.094;2022-08-19T11:43:55;16.60;;;9.57;;
19127;SDS011;9696;53.686;10.094;2022-08-19T11:46:25;16.83;;;8.38;;
19127;SDS011;9696;53.686;10.094;2022-08-19T11:48:56;12.43;;;7.90;;
19127;SDS011;9696;53.686;10.094;2022-08-19T11:51:27;24.98;;;8.63;;
19127;SDS011;9696;53.686;10.094;2022-08-19T11:53:58;15.35;;;8.35;;
19127;SDS011;9696;53.686;10.094;2022-08-19T11:56:28;16.48;;;7.80;;
19127;SDS011;9696;53.686;10.094;2022-08-19T11:58:57;15.02;;;8.43;;
19127;SDS011;9696;53.686;10.094;2022-08-19T12:01:28;12.38;;;7.50;;
19127;SDS011;9696;53.686;10.094;2022-08-19T12:03:58;14.75;;;7.65;;
19127;SDS011;9696;53.686;10.094;2022-08-19T12:06:28;15.05;;;7.82;;
19127;SDS011;9696;53.686;10.094;2022-08-19T12:09:04;13.32;;;7.45;;
19127;SDS011;9696;53.686;10.094;2022-08-19T12:11:35;12.50;;;6.95;;
19127;SDS011;9696;53.686;10.094;2022-08-19T12:14:04;13.23;;;7.20;;
19127;SDS011;9696;53.686;10.094;2022-08-19T12:16:40;12.43;;;7.82;;
19127;SDS011;9696;53.686;10.094;2022-08-19T12:19:18;14.30;;;6.45;;
19127;SDS011;9696;53.686;10.094;2022-08-19T12:21:48;14.07;;;7.20;;
19127;SDS011;9696;53.686;10.094;2022-08-19T12:24:21;12.60;;;7.38;;
19127;SDS011;9696;53.686;10.094;2022-08-19T12:26:51;11.13;;;6.95;;
19127;SDS011;9696;53.686;10.094;2022-08-19T12:29:26;10.65;;;5.93;;
19127;SDS011;9696;53.686;10.094;2022-08-19T12:31:56;11.63;;;6.43;;
19127;SDS011;9696;53.686;10.094;2022-08-19T12:34:30;11.55;;;6.40;;
19127;SDS011;9696;53.686;10.094;2022-08-19T12:37:01;11.25;;;6.15;;
19127;SDS011;9696;53.686;10.094;2022-08-19T12:39:38;11.02;;;6.28;;
19127;SDS011;9696;53.686;10.094;2022-08-19T12:42:09;12.40;;;6.50;;
19127;SDS011;9696;53.686;10.094;2022-08-19T12:44:40;10.18;;;6.43;;
19127;SDS011;9696;53.686;10.094;2022-08-19T12:47:11;11.70;;;7.00;;
19127;SDS011;9696;53.686;10.094;2022-08-19T12:49:41;12.77;;;6.28;;
19127;SDS011;9696;53.686;10.094;2022-08-19T12:52:22;16.15;;;6.45;;
19127;SDS011;9696;53.686;10.094;2022-08-19T12:54:55;11.32;;;6.95;;
19127;SDS011;9696;53.686;10.094;2022-08-19T12:57:25;12.27;;;6.82;;
19127;SDS011;9696;53.686;10.094;2022-08-19T12:59:59;11.07;;;6.80;;
19127;SDS011;9696;53.686;10.094;2022-08-19T13:02:33;13.93;;;6.97;;
19127;SDS011;9696;53.686;10.094;2022-08-19T13:05:06;14.30;;;6.60;;
19127;SDS011;9696;53.686;10.094;2022-08-19T13:07:37;12.35;;;6.68;;
19127;SDS011;9696;53.686;10.094;2022-08-19T13:10:10;11.77;;;7.07;;
19127;SDS011;9696;53.686;10.094;2022-08-19T13:12:42;14.23;;;7.50;;
19127;SDS011;9696;53.686;10.094;2022-08-19T13:15:13;16.27;;;6.43;;
19127;SDS011;9696;53.686;10.094;2022-08-19T13:17:50;10.50;;;6.93;;
19127;SDS011;9696;53.686;10.094;2022-08-19T13:20:23;14.15;;;7.70;;
19127;SDS011;9696;53.686;10.094;2022-08-19T13:22:52;13.30;;;6.57;;
19127;SDS011;9696;53.686;10.094;2022-08-19T13:25:25;13.02;;;6.40;;
19127;SDS011;9696;53.686;10.094;2022-08-19T13:27:54;9.73;;;6.30;;
19127;SDS011;9696;53.686;10.094;2022-08-19T13:30:23;10.27;;;6.47;;
19127;SDS011;9696;53.686;10.094;2022-08-19T13:33:10;8.27;;;5.50;;
19127;SDS011;9696;53.686;10.094;2022-08-19T13:35:44;11.23;;;6.70;;
19127;SDS011;9696;53.686;10.094;2022-08-19T13:38:16;11.93;;;6.25;;
19127;SDS011;9696;53.686;10.094;2022-08-19T13:40:48;10.70;;;6.13;;
19127;SDS011;9696;53.686;10.094;2022-08-19T13:43:19;9.57;;;5.68;;
19127;SDS011;9696;53.686;10.094;2022-08-19T13:45:50;10.27;;;5.95;;
19127;SDS011;9696;53.686;10.094;2022-08-19T13:48:23;12.95;;;7.40;;
19127;SDS011;9696;53.686;10.094;2022-08-19T13:50:54;13.13;;;5.97;;
19127;SDS011;9696;53.686;10.094;2022-08-19T13:53:23;10.95;;;6.40;;
19127;SDS011;9696;53.686;10.094;2022-08-19T13:55:53;10.30;;;6.07;;
19127;SDS011;9696;53.686;10.094;2022-08-19T13:58:22;10.57;;;6.47;;
19127;SDS011;9696;53.686;10.094;2022-08-19T14:00:51;9.73;;;6.30;;
19127;SDS011;9696;53.686;10.094;2022-08-19T14:03:24;8.68;;;5.63;;
19127;SDS011;9696;53.686;10.094;2022-08-19T14:05:53;10.45;;;6.28;;
19127;SDS011;9696;53.686;10.094;2022-08-19T14:08:22;13.40;;;6.78;;
19127;SDS011;9696;53.686;10.094;2022-08-19T14:10:52;10.02;;;6.45;;
19127;SDS011;9696;53.686;10.094;2022-08-19T14:13:22;8.45;;;5.75;;
19127;SDS011;9696;53.686;10.094;2022-08-19T14:15:52;8.85;;;6.53;;
19127;SDS011;9696;53.686;10.094;2022-08-19T14:18:21;9.10;;;5.78;;
19127;SDS011;9696;53.686;10.094;2022-08-19T14:20:54;10.45;;;5.95;;
19127;SDS011;9696;53.686;10.094;2022-08-19T14:23:24;7.95;;;5.45;;
19127;SDS011;9696;53.686;10.094;2022-08-19T14:26:03;8.15;;;5.72;;
19127;SDS011;9696;53.686;10.094;2022-08-19T14:28:33;9.18;;;5.82;;
19127;SDS011;9696;53.686;10.094;2022-08-19T14:31:02;7.95;;;5.13;;
19127;SDS011;9696;53.686;10.094;2022-08-19T14:33:31;7.90;;;5.50;;
19127;SDS011;9696;53.686;10.094;2022-08-19T14:36:00;8.32;;;5.47;;
19127;SDS011;9696;53.686;10.094;2022-08-19T14:38:30;7.20;;;4.93;;
19127;SDS011;9696;53.686;10.094;2022-08-19T14:41:07;10.68;;;5.60;;
19127;SDS011;9696;53.686;10.094;2022-08-19T14:43:39;9.02;;;5.68;;
19127;SDS011;9696;53.686;10.094;2022-08-19T14:46:08;8.02;;;5.65;;
19127;SDS011;9696;53.686;10.094;2022-08-19T14:48:39;7.97;;;5.22;;
19127;SDS011;9696;53.686;10.094;2022-08-19T14:51:09;8.93;;;6.03;;
19127;SDS011;9696;53.686;10.094;2022-08-19T14:53:38;14.45;;;6.20;;
19127;SDS011;9696;53.686;10.094;2022-08-19T14:56:10;8.50;;;6.55;;
19127;SDS011;9696;53.686;10.094;2022-08-19T14:58:40;8.05;;;5.65;;